Gure Fatima — EAWO — position and weather

sailwx.info

Track history (hours):
 
Tides and Currents Weather Stations Pressure Air Temp Water Temp Dewpoint Dewpoint Depression Visibility Wind Speed Wind Dir Waves Ship Positions

Gure Fatima

Last reported at 2016-Jun-22 11:11 UTC. Time now 2016-Jun-29 09:16 UTC.
Position N 41°16' W 021°48'.

Length 28 m; draft 3.2 m.

Type: Fishing. MMSI: 224081840.

Date/timePositionNaut miles runAvg speedWind from/ knotsBaromVisibWave heightAir tempDewpointWater temp
2016-Jun-22 11:11N 41°16' W 021°48'9 5.1
2016-Jun-22 09:20N 41°22' W 021°59'1 1.2
2016-Jun-22 08:28N 41°21' W 021°59'2 1.3
2016-Jun-22 07:15N 41°22' W 021°59'5 6.9
2016-Jun-22 06:29N 41°25' W 022°05'7 2.0
2016-Jun-22 03:07N 41°31' W 022°09'  
2016-Jun-16 20:33N 43°42' W 006°08'4 4.1
2016-Jun-16 19:33N 43°40' W 006°03'5 4.3
2016-Jun-16 18:19N 43°36' W 005°58'0 0.0
2016-Jun-15 12:33N 43°36' W 005°58'  
Track history (hours):
 
Tides and Currents Weather Stations Pressure Air Temp Water Temp Dewpoint Dewpoint Depression Visibility Wind Speed Wind Dir Waves Ship Positions

Gure Fatima

Last reported at 2016-Jun-22 11:11 UTC. Time now 2016-Jun-29 09:16 UTC.
Position N 41°16' W 021°48'.

Length 28 m; draft 3.2 m.

Type: Fishing. MMSI: 224081840.

Date/timePositionNaut miles runAvg speedWind from/ knotsBaromVisibWave heightAir tempDewpointWater temp
2016-Jun-22 11:11N 41°16' W 021°48'9 5.1
2016-Jun-22 09:20N 41°22' W 021°59'1 1.2
2016-Jun-22 08:28N 41°21' W 021°59'2 1.3
2016-Jun-22 07:15N 41°22' W 021°59'5 6.9
2016-Jun-22 06:29N 41°25' W 022°05'7 2.0
2016-Jun-22 03:07N 41°31' W 022°09'  
2016-Jun-16 20:33N 43°42' W 006°08'4 4.1
2016-Jun-16 19:33N 43°40' W 006°03'5 4.3
2016-Jun-16 18:19N 43°36' W 005°58'0 0.0
2016-Jun-15 12:33N 43°36' W 005°58'  

Dump ship's entire track history